Time;durP1;ratioP1;P1;durP2;ratioP2;P2;SDS_P1;SDS_P2;PMS_P1;PMS_P2;Temp;Humidity;BMP_temperature;BMP_pressure;BME280_temperature;BME280_humidity;BME280_pressure;Samples;Min_cycle;Max_cycle;Signal;HPM_P1;HPM_P2
2023/04/18 00:00:55;;;;;;;5.88;4.50;;;;;;;;;;5083358;28;20032;-83
2023/04/18 00:03:20;;;;;;;8.70;4.57;;;;;;;;;;5075502;28;20036;-83
2023/04/18 00:05:46;;;;;;;8.90;4.13;;;;;;;;;;5071680;28;20055;-83
2023/04/18 00:08:13;;;;;;;6.55;4.43;;;;;;;;;;5067378;28;20040;-83
2023/04/18 00:10:39;;;;;;;6.50;4.70;;;;;;;;;;5084141;28;20055;-83
2023/04/18 00:13:04;;;;;;;6.68;4.30;;;;;;;;;;5077478;28;20589;-83
2023/04/18 00:15:30;;;;;;;5.88;4.32;;;;;;;;;;5081781;28;20044;-83
2023/04/18 00:17:56;;;;;;;6.47;4.50;;;;;;;;;;5078938;28;20013;-83
2023/04/18 00:20:25;;;;;;;6.75;4.05;;;;;;;;;;5083228;28;20039;-82
2023/04/18 00:22:52;;;;;;;5.50;4.20;;;;;;;;;;5080516;28;20044;-83
2023/04/18 00:25:18;;;;;;;6.25;4.00;;;;;;;;;;5098786;28;20040;-82
2023/04/18 00:27:43;;;;;;;5.40;3.97;;;;;;;;;;5093475;28;20048;-82
2023/04/18 00:30:09;;;;;;;5.93;4.28;;;;;;;;;;5078173;28;20033;-83
2023/04/18 00:32:36;;;;;;;5.82;4.03;;;;;;;;;;5078322;28;20441;-83
2023/04/18 00:35:02;;;;;;;5.57;4.32;;;;;;;;;;5076958;28;20083;-83
2023/04/18 00:37:29;;;;;;;7.15;4.20;;;;;;;;;;5074335;28;20104;-83
2023/04/18 00:39:54;;;;;;;5.93;4.32;;;;;;;;;;5074464;28;20042;-83
2023/04/18 00:42:20;;;;;;;8.85;4.47;;;;;;;;;;5074794;28;20056;-81
2023/04/18 00:44:47;;;;;;;6.03;4.10;;;;;;;;;;5081514;28;20123;-82
2023/04/18 00:47:15;;;;;;;6.03;4.20;;;;;;;;;;5082922;28;20040;-83
2023/04/18 00:49:41;;;;;;;6.35;4.15;;;;;;;;;;5077403;28;20051;-83
2023/04/18 00:52:07;;;;;;;5.93;4.45;;;;;;;;;;5083446;28;20559;-83
2023/04/18 00:54:33;;;;;;;7.00;4.55;;;;;;;;;;5076909;28;20036;-83
2023/04/18 00:56:58;;;;;;;5.43;4.30;;;;;;;;;;5070394;28;20037;-83
2023/04/18 00:59:24;;;;;;;5.22;4.22;;;;;;;;;;5067598;28;20127;-83
2023/04/18 01:01:49;;;;;;;6.85;4.32;;;;;;;;;;5072643;28;20041;-83
2023/04/18 01:04:15;;;;;;;7.55;4.78;;;;;;;;;;5082580;28;20036;-83
2023/04/18 01:06:42;;;;;;;5.20;4.20;;;;;;;;;;5078245;28;20214;-82
2023/04/18 01:09:08;;;;;;;5.68;4.32;;;;;;;;;;5076779;28;20062;-83
2023/04/18 01:11:34;;;;;;;4.93;3.90;;;;;;;;;;5078401;28;20045;-83
2023/04/18 01:14:01;;;;;;;6.25;4.32;;;;;;;;;;5079975;28;20100;-83
2023/04/18 01:16:35;;;;;;;5.95;4.25;;;;;;;;;;5096933;28;20032;-83
2023/04/18 01:19:02;;;;;;;6.72;4.43;;;;;;;;;;5078185;28;20039;-83
2023/04/18 01:21:36;;;;;;;5.57;4.38;;;;;;;;;;5077648;28;20032;-82
2023/04/18 01:24:15;;;;;;;5.63;4.38;;;;;;;;;;5069539;28;20033;-82
2023/04/18 01:26:42;;;;;;;5.30;3.88;;;;;;;;;;5066265;28;20123;-82
2023/04/18 01:29:08;;;;;;;5.35;4.22;;;;;;;;;;5066057;28;20037;-83
2023/04/18 01:31:38;;;;;;;5.13;3.85;;;;;;;;;;5071593;28;20125;-83
2023/04/18 01:34:04;;;;;;;4.90;4.00;;;;;;;;;;5081806;28;20166;-83
2023/04/18 01:36:30;;;;;;;4.55;3.70;;;;;;;;;;5077697;28;20060;-82
2023/04/18 01:38:57;;;;;;;4.45;3.78;;;;;;;;;;5079009;28;20593;-83
2023/04/18 01:41:22;;;;;;;4.68;3.80;;;;;;;;;;5076374;28;20032;-83
2023/04/18 01:43:48;;;;;;;5.63;4.00;;;;;;;;;;5075335;28;20039;-83
2023/04/18 01:46:13;;;;;;;8.40;4.22;;;;;;;;;;5077846;28;20032;-82
2023/04/18 01:48:39;;;;;;;5.57;3.95;;;;;;;;;;5078541;28;20037;-82
2023/04/18 01:51:05;;;;;;;6.03;4.07;;;;;;;;;;5076294;28;20036;-83
2023/04/18 01:53:30;;;;;;;7.10;4.20;;;;;;;;;;5081402;28;20036;-83
2023/04/18 01:55:57;;;;;;;4.47;3.72;;;;;;;;;;5071706;28;20043;-83
2023/04/18 01:58:24;;;;;;;5.82;4.40;;;;;;;;;;5068915;28;20171;-83
2023/04/18 02:00:53;;;;;;;5.43;4.20;;;;;;;;;;5084468;28;20060;-83
2023/04/18 02:03:20;;;;;;;5.88;4.15;;;;;;;;;;5079067;28;20039;-83
2023/04/18 02:05:46;;;;;;;5.13;4.20;;;;;;;;;;5079139;28;20418;-83
2023/04/18 02:08:12;;;;;;;5.70;4.22;;;;;;;;;;5079144;28;20032;-83
2023/04/18 02:10:37;;;;;;;5.47;4.18;;;;;;;;;;5059630;28;20029;-83
2023/04/18 02:13:03;;;;;;;5.45;4.47;;;;;;;;;;5077595;28;20039;-83
2023/04/18 02:15:32;;;;;;;5.95;4.70;;;;;;;;;;5079376;28;20322;-83
2023/04/18 02:18:02;;;;;;;5.95;4.40;;;;;;;;;;5081926;28;20120;-83
2023/04/18 02:20:30;;;;;;;5.93;4.20;;;;;;;;;;5067191;28;20530;-83
2023/04/18 02:22:57;;;;;;;6.00;4.20;;;;;;;;;;5096004;28;20033;-83
2023/04/18 02:25:25;;;;;;;7.05;4.60;;;;;;;;;;5076957;28;20052;-83
2023/04/18 02:27:55;;;;;;;4.88;3.92;;;;;;;;;;5080667;28;20042;-82
2023/04/18 02:30:21;;;;;;;6.57;3.80;;;;;;;;;;5078741;28;20067;-83
2023/04/18 02:32:50;;;;;;;5.53;4.38;;;;;;;;;;5078276;28;20041;-83
2023/04/18 02:35:17;;;;;;;5.88;4.28;;;;;;;;;;5074734;28;20091;-83
2023/04/18 02:37:42;;;;;;;8.60;4.50;;;;;;;;;;5079908;28;20113;-83
2023/04/18 02:40:11;;;;;;;5.68;4.55;;;;;;;;;;5074763;28;20029;-82
2023/04/18 02:42:37;;;;;;;6.22;4.18;;;;;;;;;;5079628;28;20056;-83
2023/04/18 02:45:04;;;;;;;7.03;4.75;;;;;;;;;;5075819;28;20043;-83
2023/04/18 02:47:30;;;;;;;8.55;4.35;;;;;;;;;;5053158;28;20062;-83
2023/04/18 02:49:56;;;;;;;5.90;4.45;;;;;;;;;;5069241;28;20059;-83
2023/04/18 02:52:24;;;;;;;7.30;4.80;;;;;;;;;;5067002;28;20037;-83
2023/04/18 02:54:51;;;;;;;6.65;4.93;;;;;;;;;;5077867;28;20033;-83
2023/04/18 02:57:22;;;;;;;6.45;4.97;;;;;;;;;;5076809;28;20032;-83
2023/04/18 02:59:47;;;;;;;6.38;4.75;;;;;;;;;;5075529;28;20048;-83
2023/04/18 03:02:13;;;;;;;7.20;5.30;;;;;;;;;;5075601;28;20072;-82
2023/04/18 03:04:46;;;;;;;7.37;4.40;;;;;;;;;;5079258;28;20108;-83
2023/04/18 03:07:12;;;;;;;6.95;4.80;;;;;;;;;;5077526;28;20036;-83
2023/04/18 03:09:38;;;;;;;6.55;4.90;;;;;;;;;;5076022;28;20106;-82
2023/04/18 03:12:13;;;;;;;6.65;4.68;;;;;;;;;;5074682;28;20468;-82
2023/04/18 03:14:40;;;;;;;7.03;4.93;;;;;;;;;;5076677;28;20632;-83
2023/04/18 03:17:05;;;;;;;8.25;4.85;;;;;;;;;;5072424;28;20036;-83
2023/04/18 03:19:37;;;;;;;6.18;4.72;;;;;;;;;;5055726;28;20120;-83
2023/04/18 03:22:06;;;;;;;7.82;5.47;;;;;;;;;;5081868;28;20059;-83
2023/04/18 03:24:35;;;;;;;9.35;5.60;;;;;;;;;;5071097;28;20277;-83
2023/04/18 03:27:03;;;;;;;7.05;4.93;;;;;;;;;;5058225;28;20029;-83
2023/04/18 03:29:28;;;;;;;8.98;5.68;;;;;;;;;;5079841;28;20035;-82
2023/04/18 03:31:54;;;;;;;7.03;5.40;;;;;;;;;;5078269;28;20052;-82
2023/04/18 03:34:20;;;;;;;6.88;4.78;;;;;;;;;;5076452;28;20063;-83
2023/04/18 03:36:45;;;;;;;8.82;5.88;;;;;;;;;;5079445;28;20043;-83
2023/04/18 03:39:11;;;;;;;9.75;5.93;;;;;;;;;;5071905;28;20044;-82
2023/04/18 03:41:37;;;;;;;8.32;5.10;;;;;;;;;;5063969;28;20096;-82
2023/04/18 03:44:03;;;;;;;8.13;5.88;;;;;;;;;;5076212;28;20041;-83
2023/04/18 03:46:32;;;;;;;9.80;5.70;;;;;;;;;;5076675;28;20029;-83
2023/04/18 03:48:58;;;;;;;7.45;5.45;;;;;;;;;;5072495;28;20071;-83
2023/04/18 03:51:24;;;;;;;7.82;5.43;;;;;;;;;;5073253;28;20525;-83
2023/04/18 03:53:49;;;;;;;8.32;5.45;;;;;;;;;;5076428;28;20064;-83
2023/04/18 03:56:16;;;;;;;8.07;5.18;;;;;;;;;;5077868;28;20066;-83
2023/04/18 03:58:49;;;;;;;7.65;5.32;;;;;;;;;;5075792;28;20086;-83
2023/04/18 04:01:16;;;;;;;7.80;5.80;;;;;;;;;;5075938;28;20045;-83
2023/04/18 04:03:42;;;;;;;8.55;6.35;;;;;;;;;;5075116;28;20128;-83
2023/04/18 04:06:08;;;;;;;8.25;6.03;;;;;;;;;;5078859;28;20036;-83
2023/04/18 04:08:33;;;;;;;8.48;5.75;;;;;;;;;;5066612;28;20036;-82
2023/04/18 04:10:59;;;;;;;8.35;5.78;;;;;;;;;;5061324;28;20040;-82
2023/04/18 04:13:25;;;;;;;9.43;6.65;;;;;;;;;;5062780;28;20044;-82
2023/04/18 04:15:51;;;;;;;7.15;5.88;;;;;;;;;;5075026;28;20707;-82
2023/04/18 04:18:16;;;;;;;9.35;5.65;;;;;;;;;;5069439;28;20036;-83
2023/04/18 04:20:44;;;;;;;9.07;6.22;;;;;;;;;;5081611;28;20291;-83
2023/04/18 04:23:14;;;;;;;8.68;5.70;;;;;;;;;;5081509;28;20064;-83
2023/04/18 04:25:45;;;;;;;9.38;6.22;;;;;;;;;;5075390;28;20078;-83
2023/04/18 04:28:21;;;;;;;7.85;5.63;;;;;;;;;;5078920;28;20033;-83
2023/04/18 04:30:54;;;;;;;6.93;5.55;;;;;;;;;;5088455;28;20082;-83
2023/04/18 04:33:27;;;;;;;6.93;5.28;;;;;;;;;;5082991;28;20024;-83
2023/04/18 04:35:56;;;;;;;7.05;5.50;;;;;;;;;;5078165;28;20039;-82
2023/04/18 04:38:22;;;;;;;6.38;5.13;;;;;;;;;;5072104;28;20044;-83
2023/04/18 04:40:48;;;;;;;6.43;4.90;;;;;;;;;;5069316;28;20028;-83
2023/04/18 04:43:19;;;;;;;10.80;6.38;;;;;;;;;;5080855;28;20375;-82
2023/04/18 04:45:50;;;;;;;10.18;6.72;;;;;;;;;;5073810;28;20035;-82
2023/04/18 04:48:20;;;;;;;8.57;6.70;;;;;;;;;;5073170;28;20068;-82
2023/04/18 04:50:51;;;;;;;9.60;6.68;;;;;;;;;;5076145;28;20033;-83
2023/04/18 04:53:17;;;;;;;10.80;7.75;;;;;;;;;;5071509;28;20040;-83
2023/04/18 04:55:44;;;;;;;9.05;7.00;;;;;;;;;;5056688;28;20056;-83
2023/04/18 04:58:09;;;;;;;9.65;6.47;;;;;;;;;;5075208;28;20036;-82
2023/04/18 05:00:55;;;;;;;10.05;6.47;;;;;;;;;;5079861;28;20053;-83
2023/04/18 05:03:21;;;;;;;7.05;5.78;;;;;;;;;;5073085;28;20033;-82
2023/04/18 05:05:47;;;;;;;11.10;6.32;;;;;;;;;;5076355;28;20024;-82
2023/04/18 05:08:12;;;;;;;9.68;6.03;;;;;;;;;;5074396;28;20028;-83
2023/04/18 05:10:38;;;;;;;8.77;6.40;;;;;;;;;;5071877;28;20515;-83
2023/04/18 05:13:04;;;;;;;10.30;7.40;;;;;;;;;;5069903;28;20043;-82
2023/04/18 05:15:30;;;;;;;9.30;6.40;;;;;;;;;;5070502;28;20048;-83
2023/04/18 05:17:56;;;;;;;14.73;9.70;;;;;;;;;;5074094;28;20418;-83
2023/04/18 05:20:23;;;;;;;14.13;9.48;;;;;;;;;;5075270;28;20036;-83
2023/04/18 05:22:48;;;;;;;12.65;8.57;;;;;;;;;;5076541;28;20088;-83
2023/04/18 05:25:14;;;;;;;14.70;9.57;;;;;;;;;;5075044;28;20063;-83
2023/04/18 05:27:40;;;;;;;19.58;12.20;;;;;;;;;;5077339;28;20033;-83
2023/04/18 05:30:06;;;;;;;19.33;11.27;;;;;;;;;;5077006;28;20036;-82
2023/04/18 05:32:31;;;;;;;21.63;13.20;;;;;;;;;;5065172;28;20564;-83
2023/04/18 05:34:57;;;;;;;23.02;13.50;;;;;;;;;;5071012;28;20044;-83
2023/04/18 05:37:22;;;;;;;26.15;15.27;;;;;;;;;;5078160;28;20040;-82
2023/04/18 05:39:48;;;;;;;25.92;14.27;;;;;;;;;;5056372;28;20124;-82
2023/04/18 05:42:13;;;;;;;24.73;14.40;;;;;;;;;;5072651;28;20036;-81
2023/04/18 05:44:39;;;;;;;23.52;13.48;;;;;;;;;;5076120;28;20131;-82
2023/04/18 05:47:04;;;;;;;22.08;14.02;;;;;;;;;;5071606;28;20041;-82
2023/04/18 05:49:31;;;;;;;20.90;13.30;;;;;;;;;;5072595;28;20074;-82
2023/04/18 05:51:56;;;;;;;23.17;13.90;;;;;;;;;;5076570;28;20040;-82
2023/04/18 05:54:23;;;;;;;24.50;13.88;;;;;;;;;;5076855;28;20525;-82
2023/04/18 05:56:49;;;;;;;24.15;13.50;;;;;;;;;;5075147;28;20036;-82
2023/04/18 05:59:15;;;;;;;23.30;13.48;;;;;;;;;;5070326;28;20049;-81
2023/04/18 06:01:40;;;;;;;20.35;12.77;;;;;;;;;;5067296;28;20127;-82
2023/04/18 06:04:07;;;;;;;17.08;11.65;;;;;;;;;;5069144;28;20082;-83
2023/04/18 06:06:33;;;;;;;15.45;9.57;;;;;;;;;;5064239;28;20044;-82
2023/04/18 06:08:59;;;;;;;11.50;8.18;;;;;;;;;;5076866;28;20379;-83
2023/04/18 06:11:25;;;;;;;12.95;8.60;;;;;;;;;;5069828;28;20548;-83
2023/04/18 06:13:50;;;;;;;12.15;8.23;;;;;;;;;;5068100;28;20045;-83
2023/04/18 06:16:17;;;;;;;13.35;8.40;;;;;;;;;;5070843;28;20052;-83
2023/04/18 06:18:42;;;;;;;12.73;8.77;;;;;;;;;;5073958;28;20047;-83
2023/04/18 06:21:08;;;;;;;14.65;10.43;;;;;;;;;;5078746;28;20056;-83
2023/04/18 06:23:33;;;;;;;16.10;9.73;;;;;;;;;;5064164;28;20044;-83
2023/04/18 06:25:59;;;;;;;15.35;10.02;;;;;;;;;;5080693;28;20043;-83
2023/04/18 06:28:25;;;;;;;13.68;9.82;;;;;;;;;;5078334;28;20067;-83
2023/04/18 06:30:50;;;;;;;18.40;10.57;;;;;;;;;;5074411;28;20148;-82
2023/04/18 06:33:16;;;;;;;18.40;10.93;;;;;;;;;;5071759;28;20020;-83
2023/04/18 06:35:41;;;;;;;18.50;11.65;;;;;;;;;;5067629;28;20115;-82
2023/04/18 06:38:07;;;;;;;19.48;11.57;;;;;;;;;;5070345;28;20032;-83
2023/04/18 06:40:33;;;;;;;19.42;11.70;;;;;;;;;;5077552;28;20028;-83
2023/04/18 06:42:58;;;;;;;21.30;12.63;;;;;;;;;;5072749;28;20044;-84
2023/04/18 06:45:24;;;;;;;19.05;12.10;;;;;;;;;;5072753;28;20494;-84
2023/04/18 06:47:51;;;;;;;22.98;14.25;;;;;;;;;;5074974;28;20119;-84
2023/04/18 06:50:16;;;;;;;20.42;12.95;;;;;;;;;;5075826;28;20036;-83
2023/04/18 06:52:45;;;;;;;21.48;12.85;;;;;;;;;;5066954;28;20029;-83
2023/04/18 06:55:12;;;;;;;23.27;12.55;;;;;;;;;;5062841;28;20033;-82
2023/04/18 06:57:40;;;;;;;22.85;12.73;;;;;;;;;;5077753;28;20043;-84
2023/04/18 07:00:07;;;;;;;22.15;13.25;;;;;;;;;;5078741;28;20079;-84
2023/04/18 07:02:37;;;;;;;23.25;13.23;;;;;;;;;;5074407;28;20041;-86
2023/04/18 07:05:02;;;;;;;25.25;13.90;;;;;;;;;;5071702;28;20037;-83
2023/04/18 07:07:28;;;;;;;24.73;14.57;;;;;;;;;;5072751;28;20076;-83
2023/04/18 07:09:54;;;;;;;25.05;14.02;;;;;;;;;;5074755;28;20032;-84
2023/04/18 07:12:19;;;;;;;21.25;12.07;;;;;;;;;;5077499;28;20059;-83
2023/04/18 07:14:45;;;;;;;24.48;13.57;;;;;;;;;;5081865;28;20398;-83
2023/04/18 07:17:11;;;;;;;24.45;14.68;;;;;;;;;;5085722;28;20028;-83
2023/04/18 07:19:36;;;;;;;26.27;15.40;;;;;;;;;;5075085;28;20088;-82
2023/04/18 07:22:02;;;;;;;27.05;15.65;;;;;;;;;;5070217;28;20029;-83
2023/04/18 07:24:27;;;;;;;28.58;15.77;;;;;;;;;;5069990;28;20556;-83
2023/04/18 07:26:53;;;;;;;26.70;14.52;;;;;;;;;;5073848;28;20045;-84
2023/04/18 07:29:18;;;;;;;24.65;14.77;;;;;;;;;;5075789;28;20098;-84
2023/04/18 07:31:45;;;;;;;24.35;14.38;;;;;;;;;;5075123;28;20086;-84
2023/04/18 07:34:12;;;;;;;27.23;15.02;;;;;;;;;;5073313;28;20032;-83
2023/04/18 07:36:38;;;;;;;23.77;14.00;;;;;;;;;;5068708;28;20037;-84
2023/04/18 07:39:04;;;;;;;25.67;15.25;;;;;;;;;;5073344;28;20032;-83
2023/04/18 07:41:29;;;;;;;23.52;14.20;;;;;;;;;;5074905;28;20494;-83
2023/04/18 07:43:55;;;;;;;26.38;14.38;;;;;;;;;;5066243;28;20490;-83
2023/04/18 07:46:21;;;;;;;25.85;15.30;;;;;;;;;;5068748;28;20478;-83
2023/04/18 07:48:49;;;;;;;24.42;14.20;;;;;;;;;;5071596;28;20033;-83
2023/04/18 07:51:17;;;;;;;21.95;13.63;;;;;;;;;;5071527;28;20054;-83
2023/04/18 07:53:43;;;;;;;24.60;14.00;;;;;;;;;;5069341;28;20028;-82
2023/04/18 07:56:11;;;;;;;25.90;14.65;;;;;;;;;;5067637;28;20045;-83
2023/04/18 07:58:37;;;;;;;26.48;14.60;;;;;;;;;;5070434;28;20059;-82
2023/04/18 08:01:02;;;;;;;24.05;15.00;;;;;;;;;;5072850;28;20036;-83
2023/04/18 08:03:28;;;;;;;24.55;14.60;;;;;;;;;;5074527;28;20032;-83
2023/04/18 08:05:54;;;;;;;25.40;14.63;;;;;;;;;;5075110;28;20032;-82
2023/04/18 08:08:19;;;;;;;24.30;14.13;;;;;;;;;;5071705;28;20063;-81
2023/04/18 08:10:45;;;;;;;25.38;14.63;;;;;;;;;;5072647;28;20048;-82
2023/04/18 08:13:13;;;;;;;26.30;14.57;;;;;;;;;;5065463;28;20052;-82
2023/04/18 08:15:39;;;;;;;29.83;14.85;;;;;;;;;;5062240;28;20044;-83
2023/04/18 08:18:05;;;;;;;25.27;14.82;;;;;;;;;;5062426;28;20059;-82
2023/04/18 08:20:30;;;;;;;26.23;14.60;;;;;;;;;;5056494;28;20036;-82
2023/04/18 08:22:56;;;;;;;26.90;15.30;;;;;;;;;;5088275;28;20398;-81
2023/04/18 08:25:21;;;;;;;30.27;16.48;;;;;;;;;;5073960;28;20029;-83
2023/04/18 08:27:47;;;;;;;26.90;15.02;;;;;;;;;;5073568;28;20040;-81
2023/04/18 08:30:13;;;;;;;25.27;14.57;;;;;;;;;;5069103;28;20473;-82
2023/04/18 08:32:39;;;;;;;25.80;14.20;;;;;;;;;;5071291;28;20055;-82
2023/04/18 08:35:05;;;;;;;29.98;16.02;;;;;;;;;;5074604;28;20092;-81
2023/04/18 08:37:34;;;;;;;29.58;15.38;;;;;;;;;;5073435;28;20029;-82
2023/04/18 08:40:03;;;;;;;32.03;16.00;;;;;;;;;;5090619;28;20040;-81
2023/04/18 08:42:30;;;;;;;30.88;15.68;;;;;;;;;;5077097;28;20036;-81
2023/04/18 08:44:58;;;;;;;28.08;15.80;;;;;;;;;;5079397;28;20116;-83
2023/04/18 08:47:34;;;;;;;30.08;15.63;;;;;;;;;;5068211;28;20036;-82
2023/04/18 08:50:00;;;;;;;31.10;17.10;;;;;;;;;;5081170;28;20040;-83
2023/04/18 08:52:28;;;;;;;32.33;16.67;;;;;;;;;;5085106;28;20037;-84
2023/04/18 08:54:53;;;;;;;30.38;17.02;;;;;;;;;;5075673;28;20551;-83
2023/04/18 08:57:25;;;;;;;33.10;15.52;;;;;;;;;;5071896;28;20033;-84
2023/04/18 08:59:52;;;;;;;29.83;15.45;;;;;;;;;;5075525;28;20485;-83
2023/04/18 09:02:21;;;;;;;28.88;16.40;;;;;;;;;;5077696;28;20094;-83
2023/04/18 09:04:51;;;;;;;29.25;15.90;;;;;;;;;;5075565;28;20029;-83
2023/04/18 09:07:29;;;;;;;24.95;14.40;;;;;;;;;;5081188;28;20036;-83
2023/04/18 09:09:56;;;;;;;25.23;14.90;;;;;;;;;;5071660;28;20655;-83
2023/04/18 09:12:24;;;;;;;28.20;16.05;;;;;;;;;;5069461;28;20090;-82
2023/04/18 09:14:57;;;;;;;26.13;15.23;;;;;;;;;;5069070;28;20081;-82
2023/04/18 09:17:40;;;;;;;30.52;15.43;;;;;;;;;;5055661;28;20101;-83
2023/04/18 09:20:10;;;;;;;24.38;15.32;;;;;;;;;;5069151;28;20065;-81
2023/04/18 09:22:51;;;;;;;26.92;15.07;;;;;;;;;;5076103;28;20060;-83
2023/04/18 09:25:41;;;;;;;23.58;14.18;;;;;;;;;;5076072;28;20043;-83
2023/04/18 09:28:28;;;;;;;22.92;12.93;;;;;;;;;;5075053;28;20052;-83
2023/04/18 09:31:17;;;;;;;23.13;13.95;;;;;;;;;;5077410;28;20040;-83
2023/04/18 09:33:55;;;;;;;22.52;12.75;;;;;;;;;;5077848;28;20036;-83
2023/04/18 09:36:22;;;;;;;24.80;13.48;;;;;;;;;;5064308;28;20098;-83
2023/04/18 09:38:50;;;;;;;23.35;14.10;;;;;;;;;;5075673;28;20047;-83
2023/04/18 09:41:17;;;;;;;23.23;13.30;;;;;;;;;;5077013;28;20052;-83
2023/04/18 09:43:43;;;;;;;20.67;12.52;;;;;;;;;;5073382;28;20040;-83
2023/04/18 09:46:09;;;;;;;19.48;11.98;;;;;;;;;;5068348;28;20039;-82
2023/04/18 09:48:35;;;;;;;21.50;12.05;;;;;;;;;;5077388;28;20092;-83
2023/04/18 09:51:15;;;;;;;19.92;11.85;;;;;;;;;;5061927;28;20313;-83
2023/04/18 09:53:46;;;;;;;18.27;10.70;;;;;;;;;;5089902;28;20043;-82
2023/04/18 09:56:18;;;;;;;18.10;11.20;;;;;;;;;;5076162;28;20060;-83
2023/04/18 09:58:46;;;;;;;16.67;10.43;;;;;;;;;;5069529;28;20092;-83
2023/04/18 10:01:12;;;;;;;16.02;9.80;;;;;;;;;;5072503;28;20042;-83
2023/04/18 10:03:46;;;;;;;14.73;8.95;;;;;;;;;;5065530;28;20530;-83
2023/04/18 10:06:15;;;;;;;14.18;9.18;;;;;;;;;;5064485;28;20114;-82
2023/04/18 10:08:43;;;;;;;12.55;7.82;;;;;;;;;;5062990;28;20033;-81
2023/04/18 10:11:08;;;;;;;14.07;7.97;;;;;;;;;;5070929;28;20036;-82
2023/04/18 10:13:37;;;;;;;12.95;8.32;;;;;;;;;;5072696;28;20047;-82
2023/04/18 10:16:02;;;;;;;13.95;8.65;;;;;;;;;;5071325;28;20477;-83
2023/04/18 10:18:28;;;;;;;16.10;9.30;;;;;;;;;;5068726;28;20036;-82
2023/04/18 10:21:01;;;;;;;14.70;9.05;;;;;;;;;;5070698;28;20406;-82
2023/04/18 10:23:30;;;;;;;;;;;;;;;;;;5074551;28;20032;-82
2023/04/18 10:25:56;;;;;;;15.40;9.27;;;;;;;;;;5075235;28;20282;-82
2023/04/18 10:28:23;;;;;;;18.08;10.90;;;;;;;;;;5070560;28;20040;-82
2023/04/18 10:30:53;;;;;;;15.50;8.93;;;;;;;;;;5072792;28;20437;-82
2023/04/18 10:33:31;;;;;;;16.65;9.20;;;;;;;;;;5071352;28;20033;-82
2023/04/18 10:36:09;;;;;;;15.65;9.43;;;;;;;;;;5069048;28;20045;-82
2023/04/18 10:38:46;;;;;;;14.52;9.00;;;;;;;;;;5072543;28;20100;-82
2023/04/18 10:41:23;;;;;;;17.77;9.80;;;;;;;;;;5076982;28;20063;-82
2023/04/18 10:46:51;;;;;;;16.45;9.30;;;;;;;;;;5079652;28;20029;-83
2023/04/18 10:49:24;;;;;;;14.98;9.48;;;;;;;;;;5072797;28;20604;-80
2023/04/18 10:51:54;;;;;;;18.00;9.43;;;;;;;;;;5076386;28;20509;-83
2023/04/18 10:54:53;;;;;;;13.05;8.50;;;;;;;;;;5073174;28;20036;-84
2023/04/18 10:57:19;;;;;;;13.68;8.35;;;;;;;;;;5067747;28;20036;-83
2023/04/18 10:59:50;;;;;;;15.43;8.15;;;;;;;;;;5055279;28;20075;-83
2023/04/18 11:02:24;;;;;;;14.05;8.43;;;;;;;;;;5050775;28;20506;-83
2023/04/18 11:05:03;;;;;;;13.00;8.20;;;;;;;;;;5070792;28;20036;-83
2023/04/18 11:07:39;;;;;;;12.77;7.88;;;;;;;;;;5070299;28;20040;-82
2023/04/18 11:10:07;;;;;;;15.07;7.97;;;;;;;;;;5065246;28;20032;-83
2023/04/18 11:12:34;;;;;;;14.48;8.35;;;;;;;;;;5069835;28;20513;-82
2023/04/18 11:15:01;;;;;;;15.82;9.13;;;;;;;;;;5069099;28;20059;-82
2023/04/18 11:17:33;;;;;;;14.32;8.32;;;;;;;;;;5070003;28;20064;-83
2023/04/18 11:20:00;;;;;;;12.15;7.88;;;;;;;;;;5072376;28;20070;-83
2023/04/18 11:22:26;;;;;;;12.10;7.75;;;;;;;;;;5065294;28;20047;-83
2023/04/18 11:24:56;;;;;;;12.65;7.65;;;;;;;;;;5072164;28;20037;-83
2023/04/18 11:27:23;;;;;;;11.85;7.75;;;;;;;;;;5062684;28;20550;-84
2023/04/18 11:29:52;;;;;;;10.93;6.60;;;;;;;;;;5064177;28;20038;-83
2023/04/18 11:32:18;;;;;;;11.50;7.10;;;;;;;;;;5074150;28;20490;-83
2023/04/18 11:34:43;;;;;;;11.77;6.72;;;;;;;;;;5074559;28;20040;-82
2023/04/18 11:37:09;;;;;;;10.07;6.90;;;;;;;;;;5071559;28;20036;-83
2023/04/18 11:39:41;;;;;;;11.82;6.40;;;;;;;;;;5067075;28;20493;-83
2023/04/18 11:42:07;;;;;;;10.52;6.43;;;;;;;;;;5072430;28;20039;-84
2023/04/18 11:44:34;;;;;;;10.98;6.30;;;;;;;;;;5075017;28;20035;-83
2023/04/18 11:46:59;;;;;;;10.00;6.03;;;;;;;;;;5071449;28;20039;-84
2023/04/18 11:49:31;;;;;;;11.20;6.60;;;;;;;;;;5070957;28;20584;-83
2023/04/18 11:51:58;;;;;;;10.80;6.63;;;;;;;;;;5072816;28;20115;-83
2023/04/18 11:54:43;;;;;;;10.77;6.90;;;;;;;;;;5069125;28;20505;-83
2023/04/18 11:57:26;;;;;;;11.10;6.38;;;;;;;;;;5066980;28;20037;-83
2023/04/18 11:59:58;;;;;;;11.15;6.50;;;;;;;;;;5068101;28;20090;-83
2023/04/18 12:02:26;;;;;;;11.25;7.18;;;;;;;;;;5072619;28;20040;-82
2023/04/18 12:04:53;;;;;;;9.60;6.07;;;;;;;;;;5070794;28;20044;-83
2023/04/18 12:07:38;;;;;;;11.07;6.93;;;;;;;;;;5075351;28;20020;-83
2023/04/18 12:10:06;;;;;;;10.52;6.60;;;;;;;;;;5042089;28;20032;-83
2023/04/18 12:12:32;;;;;;;10.35;6.57;;;;;;;;;;5076190;28;20040;-83
2023/04/18 12:15:12;;;;;;;10.50;6.10;;;;;;;;;;5064657;28;20029;-83
2023/04/18 12:17:38;;;;;;;9.65;6.38;;;;;;;;;;5064780;28;20040;-83
2023/04/18 12:20:05;;;;;;;10.13;6.30;;;;;;;;;;5076182;28;20063;-82
2023/04/18 12:22:42;;;;;;;17.05;8.82;;;;;;;;;;5075269;28;20127;-82
2023/04/18 12:25:09;;;;;;;11.05;7.25;;;;;;;;;;5074829;28;20030;-83
2023/04/18 12:28:13;;;;;;;13.02;7.75;;;;;;;;;;5072107;28;20092;-82
2023/04/18 12:30:39;;;;;;;;;;;;;;;;;;5072210;28;20520;-83
2023/04/18 12:33:05;;;;;;;23.70;13.02;;;;;;;;;;5069318;28;19917;-82
2023/04/18 12:35:31;;;;;;;18.05;10.70;;;;;;;;;;5074185;28;20067;-82
2023/04/18 12:38:01;;;;;;;37.33;21.08;;;;;;;;;;5072635;28;20036;-82
2023/04/18 12:40:28;;;;;;;21.15;13.05;;;;;;;;;;5074000;28;20041;-83
2023/04/18 12:42:54;;;;;;;16.48;9.98;;;;;;;;;;5089054;28;20559;-82
2023/04/18 12:45:21;;;;;;;9.27;6.13;;;;;;;;;;5072776;28;20547;-82
2023/04/18 12:47:49;;;;;;;10.45;5.82;;;;;;;;;;5070845;28;20036;-83
2023/04/18 12:50:19;;;;;;;10.23;6.30;;;;;;;;;;5069251;28;20078;-83
2023/04/18 12:52:45;;;;;;;7.05;4.88;;;;;;;;;;5065493;28;20037;-83
2023/04/18 12:55:12;;;;;;;6.72;4.47;;;;;;;;;;5074148;28;20363;-83
2023/04/18 12:57:37;;;;;;;6.30;4.40;;;;;;;;;;5072256;28;20029;-83
2023/04/18 13:00:09;;;;;;;7.07;4.53;;;;;;;;;;5069304;28;20431;-83
2023/04/18 13:02:36;;;;;;;5.63;3.97;;;;;;;;;;5072364;28;20029;-85
2023/04/18 13:05:03;;;;;;;5.82;3.47;;;;;;;;;;5071897;28;20040;-83
2023/04/18 13:07:28;;;;;;;5.35;3.70;;;;;;;;;;5075151;28;20404;-82
2023/04/18 13:09:54;;;;;;;5.00;3.47;;;;;;;;;;5068400;28;20037;-82
2023/04/18 13:12:19;;;;;;;3.95;3.05;;;;;;;;;;5071868;28;20052;-88
2023/04/18 13:14:45;;;;;;;4.90;3.13;;;;;;;;;;5069194;28;20037;-89
2023/04/18 13:17:10;;;;;;;4.75;3.60;;;;;;;;;;5071376;28;20058;-89
2023/04/18 13:19:36;;;;;;;6.50;3.17;;;;;;;;;;5088348;28;20402;-89
2023/04/18 13:22:01;;;;;;;5.47;3.72;;;;;;;;;;5074578;28;20047;-87
2023/04/18 13:24:27;;;;;;;4.88;3.40;;;;;;;;;;5072890;28;20056;-83
2023/04/18 13:26:52;;;;;;;6.25;3.45;;;;;;;;;;5062016;28;20466;-87
2023/04/18 13:29:18;;;;;;;6.43;3.75;;;;;;;;;;5043367;28;20056;-86
2023/04/18 13:31:43;;;;;;;5.70;3.97;;;;;;;;;;5060293;28;20111;-88
2023/04/18 13:34:09;;;;;;;7.03;4.55;;;;;;;;;;5071072;28;20061;-88
2023/04/18 13:36:34;;;;;;;7.40;3.60;;;;;;;;;;5068687;28;20040;-88
2023/04/18 13:39:00;;;;;;;5.68;3.47;;;;;;;;;;5062863;28;20052;-87
2023/04/18 13:41:26;;;;;;;6.30;4.50;;;;;;;;;;5044569;28;20486;-87
2023/04/18 13:43:52;;;;;;;6.57;4.13;;;;;;;;;;5062708;28;20028;-87
2023/04/18 13:46:17;;;;;;;7.00;4.82;;;;;;;;;;5070172;28;20052;-87
2023/04/18 13:48:43;;;;;;;6.63;4.57;;;;;;;;;;5048873;28;20044;-87
2023/04/18 13:51:09;;;;;;;6.80;4.35;;;;;;;;;;5066825;28;20048;-87
2023/04/18 13:53:34;;;;;;;7.70;4.95;;;;;;;;;;5070121;28;20033;-87
2023/04/18 13:56:00;;;;;;;6.95;4.95;;;;;;;;;;5081927;28;20033;-86
2023/04/18 13:58:26;;;;;;;8.20;4.82;;;;;;;;;;5051563;28;20540;-86
2023/04/18 14:00:52;;;;;;;7.25;4.57;;;;;;;;;;5075995;28;20123;-86
2023/04/18 14:03:18;;;;;;;7.40;4.80;;;;;;;;;;5068919;28;20024;-83
2023/04/18 14:05:43;;;;;;;6.70;4.50;;;;;;;;;;5053828;28;20032;-84
2023/04/18 14:08:09;;;;;;;7.55;5.25;;;;;;;;;;5072163;28;20041;-86
2023/04/18 14:10:34;;;;;;;7.10;4.88;;;;;;;;;;5065925;28;20032;-87
2023/04/18 14:13:00;;;;;;;7.20;4.90;;;;;;;;;;5069226;28;20024;-89
2023/04/18 14:15:26;;;;;;;7.68;4.93;;;;;;;;;;5067280;28;20471;-86
2023/04/18 14:17:51;;;;;;;5.93;4.68;;;;;;;;;;5067093;28;20033;-87
2023/04/18 14:20:19;;;;;;;7.10;4.80;;;;;;;;;;5066154;28;20133;-87
2023/04/18 14:22:47;;;;;;;6.05;4.10;;;;;;;;;;5082507;28;20028;-87
2023/04/18 14:25:13;;;;;;;7.32;4.80;;;;;;;;;;5068549;28;20028;-87
2023/04/18 14:27:39;;;;;;;6.10;4.40;;;;;;;;;;5066520;28;20083;-88
2023/04/18 14:30:07;;;;;;;8.15;4.65;;;;;;;;;;5051683;28;20059;-89
2023/04/18 14:32:34;;;;;;;6.97;4.65;;;;;;;;;;5070426;28;20025;-89
2023/04/18 14:35:01;;;;;;;9.23;5.13;;;;;;;;;;5074596;28;20465;-87
2023/04/18 14:37:26;;;;;;;9.90;5.80;;;;;;;;;;5069384;28;20067;-87
2023/04/18 14:39:52;;;;;;;7.30;5.00;;;;;;;;;;5070062;28;20048;-87